Perkinsville, Vermont
Current Conditions -  °F | °C
As of 9:54 AM on Tuesday 21 Oct 2014 (Local Time) from KVSF Reporting Station
Light Rain Light Rain  
Wind Chill:   Ceiling: 6500
Heat Index:   Visibility: 4mi
Dew Point:   Wind: 0mph
Humidity: 93%   Direction: NA
Pressure: 30"   Gusts: NA
Location:  43.37°N, 72.51°W
Report Text: KVSF 211354Z AUTO 00000KT 4SM -RA BR SCT004 SCT019 OVC065 08/07 A3000 RMK AO2 RAB10 SLP162 P0001 T00780067
Loading
Personal Weather Stations






























Interactive Weather Map
Tropical Storm Tracking
New forecast layout! Learn more

10-Day Weather Forecast

Advertisements
Track Severe Weather on mobile